createdAt,value
2022-12-26T00:00:27.439Z,97463.16
2022-12-26T00:02:28.841Z,97454.53
2022-12-26T00:04:52.281Z,97460.31
2022-12-26T00:06:51.567Z,97457.63
2022-12-26T00:08:52.873Z,97447.25
2022-12-26T00:10:54.220Z,97432.69
2022-12-26T00:12:55.531Z,97442.84
2022-12-26T00:15:16.836Z,97434.22
2022-12-26T00:17:18.115Z,97425.59
2022-12-26T00:19:19.425Z,97302.25
2022-12-26T00:21:20.990Z,97418.66
2022-12-26T00:23:22.274Z,97416.06
2022-12-26T00:25:23.569Z,97421.19
2022-12-26T00:27:24.870Z,97431.31
2022-12-26T00:29:26.188Z,97444.91
2022-12-26T00:31:27.587Z,97302.94
2022-12-26T00:33:28.908Z,97443.16
2022-12-26T00:35:30.235Z,97426.97
2022-12-26T00:37:31.540Z,97436.34
2022-12-26T00:39:32.837Z,97439.75
2022-12-26T00:41:34.204Z,97431.28
2022-12-26T00:43:35.536Z,97434.69
2022-12-26T00:45:36.832Z,97414.25
2022-12-26T00:47:38.157Z,97419.47
2022-12-26T00:50:13.323Z,97418.56
2022-12-26T00:52:00.781Z,97429.59
2022-12-26T00:54:02.122Z,97433.78
2022-12-26T00:56:03.421Z,97423.66
2022-12-26T00:58:04.779Z,97412.66
2022-12-26T01:00:06.079Z,97417.84
2022-12-26T01:02:27.418Z,97422.13
2022-12-26T01:04:28.843Z,97422.97
2022-12-26T01:06:30.146Z,97426.44
2022-12-26T01:08:31.460Z,97423.09
2022-12-26T01:10:32.815Z,97424.78
2022-12-26T01:12:34.112Z,97418.91
2022-12-26T01:14:35.415Z,97421.56
2022-12-26T01:16:36.811Z,97430.06
2022-12-26T01:18:38.226Z,97430.13
2022-12-26T01:20:39.541Z,97415.66
2022-12-26T01:22:40.866Z,97412.38
2022-12-26T01:24:42.188Z,97414.13
2022-12-26T01:26:43.559Z,97415.00
2022-12-26T01:28:44.854Z,97409.09
2022-12-26T01:30:46.160Z,97403.09
2022-12-26T01:32:47.491Z,97406.56
2022-12-26T01:34:48.839Z,97407.44
2022-12-26T01:36:50.130Z,97400.63
2022-12-26T01:38:51.551Z,97398.06
2022-12-26T01:41:12.843Z,97402.31
2022-12-26T01:43:14.164Z,97398.81
2022-12-26T01:45:15.463Z,97400.59
2022-12-26T01:47:16.762Z,97399.72
2022-12-26T01:49:18.071Z,97406.56
2022-12-26T01:51:19.404Z,97402.22
2022-12-26T01:53:21.725Z,97399.66
2022-12-26T01:55:23.031Z,97387.66
2022-12-26T01:57:24.340Z,97377.47
2022-12-26T01:59:25.678Z,97386.72
2022-12-26T02:01:27.092Z,97385.91
2022-12-26T02:03:47.023Z,97400.31
2022-12-26T02:05:49.346Z,97398.56
2022-12-26T02:07:50.687Z,97394.28
2022-12-26T02:09:52.031Z,97390.81
2022-12-26T02:12:34.683Z,97388.06
2022-12-26T02:14:14.693Z,97385.59
2022-12-26T02:16:16.030Z,97387.38
2022-12-26T02:18:17.415Z,97395.81
2022-12-26T02:20:18.774Z,97391.66
2022-12-26T02:22:20.095Z,97395.91
2022-12-26T02:24:21.432Z,97396.81
2022-12-26T02:26:22.719Z,97404.50
2022-12-26T02:28:24.133Z,97405.28
2022-12-26T02:30:25.430Z,97397.63
2022-12-26T02:32:26.879Z,97396.81
2022-12-26T02:34:28.211Z,97394.13
2022-12-26T02:36:29.659Z,97388.84
2022-12-26T02:38:30.958Z,97394.53
2022-12-26T02:40:32.252Z,97383.44
2022-12-26T02:42:33.542Z,97378.22
2022-12-26T02:44:53.363Z,97384.16
2022-12-26T02:47:03.580Z,97366.28
2022-12-26T02:49:04.871Z,97357.81
2022-12-26T02:51:25.004Z,97360.34
2022-12-26T02:53:44.871Z,97362.03
2022-12-26T02:56:04.684Z,97368.00
2022-12-26T02:58:24.442Z,97373.94
2022-12-26T03:00:44.214Z,97379.09
2022-12-26T03:03:04.184Z,97372.19
2022-12-26T03:05:24.300Z,97388.47
2022-12-26T03:07:48.704Z,97384.25
2022-12-26T03:10:28.460Z,97364.75
2022-12-26T03:12:48.132Z,97386.81
2022-12-26T03:14:49.488Z,97375.78
2022-12-26T03:17:09.528Z,97371.53
2022-12-26T03:19:11.276Z,97388.69
2022-12-26T03:21:12.605Z,97384.47
2022-12-26T03:23:13.911Z,97388.75
2022-12-26T03:25:34.111Z,97374.41
2022-12-26T03:27:35.406Z,97378.78
2022-12-26T03:29:55.207Z,97371.13
2022-12-26T03:31:56.550Z,97374.53
2022-12-26T03:34:16.424Z,97380.56
2022-12-26T03:36:17.723Z,97381.50
2022-12-26T03:38:19.038Z,97376.38
2022-12-26T03:40:38.974Z,97388.22
2022-12-26T03:42:58.764Z,97390.91
2022-12-26T03:45:18.641Z,97387.66
2022-12-26T03:47:38.565Z,97400.59
2022-12-26T03:49:58.524Z,97393.72
2022-12-26T03:52:18.480Z,97400.50
2022-12-26T03:54:38.249Z,97398.91
2022-12-26T03:56:58.088Z,97384.53
2022-12-26T03:59:17.996Z,97377.72
2022-12-26T04:01:38.236Z,97386.06
2022-12-26T04:03:58.555Z,97385.81
2022-12-26T04:06:18.768Z,97376.25
2022-12-26T04:08:38.934Z,97381.34
2022-12-26T04:10:58.803Z,97381.28
2022-12-26T04:13:18.789Z,97378.59
2022-12-26T04:15:38.783Z,97379.19
2022-12-26T04:17:59.145Z,97384.97
2022-12-26T04:20:00.470Z,97387.44
2022-12-26T04:22:20.691Z,97389.84
2022-12-26T04:24:40.578Z,97391.47
2022-12-26T04:27:00.605Z,97388.78
2022-12-26T04:29:20.413Z,97382.78
2022-12-26T04:31:40.536Z,97385.31
2022-12-26T04:34:00.833Z,97384.41
2022-12-26T04:36:20.616Z,97384.41
2022-12-26T04:38:40.494Z,97395.41
2022-12-26T04:41:00.216Z,97396.97
2022-12-26T04:43:50.501Z,97399.56
2022-12-26T04:45:41.231Z,97406.44
2022-12-26T04:48:02.483Z,97405.69
2022-12-26T04:50:12.773Z,97413.78
2022-12-26T04:52:14.597Z,97419.69
2022-12-26T04:54:15.887Z,97423.91
2022-12-26T04:56:18.775Z,97410.31
2022-12-26T04:58:20.834Z,97418.06
2022-12-26T05:00:24.083Z,97411.25
2022-12-26T05:02:44.168Z,97415.56
2022-12-26T05:05:04.462Z,97419.94
2022-12-26T05:07:24.541Z,97414.91
2022-12-26T05:09:35.037Z,97407.44
2022-12-26T05:11:36.401Z,97413.53
2022-12-26T05:13:37.702Z,97422.06
2022-12-26T05:15:57.910Z,97418.78
2022-12-26T05:18:18.169Z,97429.88
2022-12-26T05:20:38.025Z,97427.38
2022-12-26T05:22:57.748Z,97427.28
2022-12-26T05:25:17.787Z,97428.91
2022-12-26T05:27:37.682Z,97429.84
2022-12-26T05:29:39.160Z,97420.50
2022-12-26T05:31:40.563Z,97412.75
2022-12-26T05:34:00.581Z,97419.53
2022-12-26T05:36:01.885Z,97410.75
2022-12-26T05:38:03.186Z,97397.78
2022-12-26T05:40:04.491Z,97391.72
2022-12-26T05:42:05.836Z,97400.00
2022-12-26T05:44:07.145Z,97410.97
2022-12-26T05:46:08.489Z,97406.59
2022-12-26T05:48:09.854Z,97407.31
2022-12-26T05:50:11.142Z,97410.63
2022-12-26T05:52:12.480Z,97414.88
2022-12-26T05:54:13.799Z,97403.88
2022-12-26T05:56:15.176Z,97405.38
2022-12-26T05:58:16.488Z,97404.53
2022-12-26T06:00:17.796Z,97416.38
2022-12-26T06:02:19.187Z,97419.78
2022-12-26T06:04:20.527Z,97416.38
2022-12-26T06:06:21.866Z,97412.13
2022-12-26T06:08:23.155Z,97425.75
2022-12-26T06:10:26.889Z,97419.78
2022-12-26T06:12:28.183Z,97425.75
2022-12-26T06:14:29.497Z,97424.16
2022-12-26T06:16:30.845Z,97415.72
2022-12-26T06:18:32.195Z,97414.13
2022-12-26T06:20:33.620Z,97404.84
2022-12-26T06:22:34.945Z,97418.56
2022-12-26T06:24:36.247Z,97416.09
2022-12-26T06:26:37.899Z,97412.00
2022-12-26T06:28:40.290Z,97403.59
2022-12-26T06:30:41.601Z,97409.59
2022-12-26T06:32:42.918Z,97421.47
2022-12-26T06:34:44.223Z,97416.44
2022-12-26T06:36:45.551Z,97416.44
2022-12-26T06:38:46.903Z,97404.63
2022-12-26T06:40:48.225Z,97396.25
2022-12-26T06:42:49.568Z,97401.38
2022-12-26T06:44:50.862Z,97408.09
2022-12-26T06:46:52.333Z,97399.72
2022-12-26T06:48:53.797Z,97410.66
2022-12-26T06:50:55.464Z,97412.28
2022-12-26T06:52:56.775Z,97402.03
2022-12-26T06:54:58.919Z,97382.47
2022-12-26T06:57:00.213Z,97385.91
2022-12-26T06:59:01.515Z,97384.25
2022-12-26T07:01:02.901Z,97399.47
2022-12-26T07:03:04.272Z,97398.56
2022-12-26T07:05:06.260Z,97408.75
2022-12-26T07:07:07.589Z,97407.03
2022-12-26T07:09:09.493Z,97401.88
2022-12-26T07:11:10.930Z,97408.66
2022-12-26T07:13:12.234Z,97423.91
2022-12-26T07:15:13.531Z,97429.81
2022-12-26T07:17:14.831Z,97428.88
2022-12-26T07:19:16.188Z,97422.81
2022-12-26T07:21:17.588Z,97433.88
2022-12-26T07:23:18.887Z,97436.41
2022-12-26T07:25:20.219Z,97435.38
2022-12-26T07:27:21.526Z,97427.63
2022-12-26T07:29:22.987Z,97442.13
2022-12-26T07:31:24.356Z,97446.47
2022-12-26T07:33:25.680Z,97451.38
2022-12-26T07:35:26.990Z,97386.97
2022-12-26T07:37:28.282Z,97459.75
2022-12-26T07:39:29.638Z,97468.38
2022-12-26T07:41:49.604Z,97453.88
2022-12-26T07:43:50.934Z,97453.16
2022-12-26T07:45:52.304Z,97449.81
2022-12-26T07:47:53.661Z,97453.25
2022-12-26T07:49:54.959Z,97449.19
2022-12-26T07:51:56.302Z,97447.50
2022-12-26T07:53:57.675Z,97445.03
2022-12-26T07:55:59.004Z,97454.31
2022-12-26T07:58:00.347Z,97447.69
2022-12-26T08:00:01.703Z,97448.78
2022-12-26T08:02:05.137Z,97453.13
2022-12-26T08:04:06.589Z,97468.47
2022-12-26T08:06:07.927Z,97466.81
2022-12-26T08:08:09.413Z,97468.53
2022-12-26T08:10:10.712Z,97469.50
2022-12-26T08:12:13.643Z,97459.38
2022-12-26T08:14:19.355Z,97479.81
2022-12-26T08:16:20.716Z,97478.00
2022-12-26T08:18:22.093Z,97479.63
2022-12-26T08:20:23.391Z,97487.25
2022-12-26T08:22:24.718Z,97483.78
2022-12-26T08:24:26.015Z,97482.09
2022-12-26T08:26:27.338Z,97485.38
2022-12-26T08:28:28.673Z,97482.75
2022-12-26T08:30:30.008Z,97463.13
2022-12-26T08:32:31.295Z,97463.03
2022-12-26T08:34:32.615Z,97460.44
2022-12-26T08:36:33.957Z,97458.56
2022-12-26T08:38:35.255Z,97467.75
2022-12-26T08:40:44.631Z,97475.34
2022-12-26T08:43:11.779Z,97478.75
2022-12-26T08:45:07.443Z,97471.16
2022-12-26T08:47:08.757Z,97441.03
2022-12-26T08:49:10.110Z,97482.63
2022-12-26T08:51:11.464Z,97481.25
2022-12-26T08:53:12.775Z,97485.91
2022-12-26T08:55:14.117Z,97476.25
2022-12-26T08:57:15.895Z,97480.84
2022-12-26T08:59:17.248Z,97475.41
2022-12-26T09:01:18.721Z,97468.09
2022-12-26T09:03:20.153Z,97458.91
2022-12-26T09:05:24.281Z,97465.03
2022-12-26T09:07:25.573Z,97470.25
2022-12-26T09:09:26.871Z,97466.94
2022-12-26T09:11:28.702Z,97466.16
2022-12-26T09:13:30.027Z,97469.66
2022-12-26T09:15:31.348Z,97462.09
2022-12-26T09:17:32.700Z,97478.31
2022-12-26T09:19:34.042Z,97465.63
2022-12-26T09:21:38.289Z,97464.91
2022-12-26T09:23:39.611Z,97475.16
2022-12-26T09:25:40.914Z,97462.44
2022-12-26T09:27:42.718Z,97465.03
2022-12-26T09:29:44.132Z,97465.88
2022-12-26T09:31:45.476Z,97451.47
2022-12-26T09:33:47.547Z,97451.47
2022-12-26T09:35:48.884Z,97445.44
2022-12-26T09:37:50.205Z,97448.06
2022-12-26T09:39:51.511Z,97445.78
2022-12-26T09:41:53.153Z,97448.78
2022-12-26T09:43:54.436Z,97456.19
2022-12-26T09:45:58.707Z,97464.00
2022-12-26T09:48:00.103Z,97475.06
2022-12-26T09:50:01.691Z,97482.22
2022-12-26T09:52:03.059Z,97492.59
2022-12-26T09:54:04.374Z,97486.91
2022-12-26T09:56:05.681Z,97476.38
2022-12-26T09:58:09.882Z,97480.84
2022-12-26T10:00:12.258Z,97483.09
2022-12-26T10:02:13.672Z,97470.97
2022-12-26T10:04:15.111Z,97473.34
2022-12-26T10:06:16.445Z,97478.84
2022-12-26T10:08:17.778Z,97475.19
2022-12-26T10:10:19.075Z,97459.66
2022-12-26T10:12:20.404Z,97458.53
2022-12-26T10:14:22.224Z,97466.38
2022-12-26T10:16:23.640Z,97461.19
2022-12-26T10:18:24.993Z,97468.66
2022-12-26T10:20:29.081Z,97463.50
2022-12-26T10:22:30.611Z,97465.13
2022-12-26T10:24:32.235Z,97466.03
2022-12-26T10:26:33.558Z,97460.00
2022-12-26T10:28:34.867Z,97460.84
2022-12-26T10:30:36.168Z,97448.88
2022-12-26T10:32:37.470Z,97442.03
2022-12-26T10:34:38.775Z,97454.78
2022-12-26T10:36:40.083Z,97440.25
2022-12-26T10:38:41.427Z,97432.53
2022-12-26T10:40:42.752Z,97429.19
2022-12-26T10:42:44.052Z,97431.72
2022-12-26T10:44:48.133Z,97414.66
2022-12-26T10:46:49.836Z,97412.94
2022-12-26T10:48:51.189Z,97414.56
2022-12-26T10:50:52.535Z,97421.50
2022-12-26T10:52:54.147Z,97435.97
2022-12-26T10:55:27.057Z,97432.59
2022-12-26T10:57:20.211Z,97428.41
2022-12-26T10:59:21.545Z,97426.72
2022-12-26T11:01:22.925Z,97426.69
2022-12-26T11:03:24.369Z,97417.34
2022-12-26T11:05:48.897Z,97425.84
2022-12-26T11:07:47.029Z,97432.63
2022-12-26T11:09:48.469Z,97422.47
2022-12-26T11:11:51.647Z,97431.00
2022-12-26T11:13:52.965Z,97429.28
2022-12-26T11:15:54.297Z,97427.63
2022-12-26T11:17:55.669Z,97424.19
2022-12-26T11:19:57.720Z,97417.34
2022-12-26T11:21:59.089Z,97416.50
2022-12-26T11:24:00.387Z,97416.50
2022-12-26T11:26:04.663Z,97413.03
2022-12-26T11:28:05.969Z,97438.56
2022-12-26T11:30:07.271Z,97436.81
2022-12-26T11:32:08.608Z,97424.06
2022-12-26T11:34:12.638Z,97429.16
2022-12-26T11:36:13.945Z,97441.88
2022-12-26T11:38:38.992Z,97419.72
2022-12-26T11:41:03.986Z,97410.38
2022-12-26T11:43:05.338Z,97412.94
2022-12-26T11:45:06.636Z,97411.28
2022-12-26T11:47:07.977Z,97420.56
2022-12-26T11:49:09.270Z,97419.75
2022-12-26T11:51:10.646Z,97418.00
2022-12-26T11:53:12.938Z,97422.28
2022-12-26T11:55:14.229Z,97432.53
2022-12-26T11:57:15.569Z,97432.50
2022-12-26T11:59:16.891Z,97433.38
2022-12-26T12:01:18.299Z,97429.16
2022-12-26T12:03:19.713Z,97428.31
2022-12-26T12:05:21.053Z,97425.69
2022-12-26T12:07:22.354Z,97413.78
2022-12-26T12:09:23.647Z,97411.22
2022-12-26T12:11:25.001Z,97409.53
2022-12-26T12:13:27.306Z,97404.44
2022-12-26T12:15:28.650Z,97414.66
2022-12-26T12:17:29.979Z,97409.59
2022-12-26T12:19:31.289Z,97414.66
2022-12-26T12:21:32.645Z,97414.72
2022-12-26T12:23:34.007Z,97404.53
2022-12-26T12:25:35.811Z,97406.28
2022-12-26T12:27:37.104Z,97397.72
2022-12-26T12:29:38.434Z,97402.81
2022-12-26T12:31:39.806Z,97397.69
2022-12-26T12:33:41.121Z,97396.88
2022-12-26T12:35:42.527Z,97401.16
2022-12-26T12:37:43.861Z,97406.31
2022-12-26T12:39:45.217Z,97403.75
2022-12-26T12:41:46.577Z,97403.72
2022-12-26T12:43:49.097Z,97407.16
2022-12-26T12:45:50.440Z,97398.66
2022-12-26T12:47:51.834Z,97401.97
2022-12-26T12:49:53.183Z,97409.63
2022-12-26T12:51:54.510Z,97408.84
2022-12-26T12:53:55.853Z,97405.44
2022-12-26T12:55:57.146Z,97397.81
2022-12-26T12:57:58.677Z,97390.13
2022-12-26T13:00:00.111Z,97385.03
2022-12-26T13:02:05.592Z,97379.13
2022-12-26T13:04:10.454Z,97379.13
2022-12-26T13:06:11.761Z,97394.47
2022-12-26T13:08:13.072Z,97375.75
2022-12-26T13:10:14.370Z,97368.91
2022-12-26T13:12:15.670Z,97372.25
2022-12-26T13:14:17.432Z,97380.69
2022-12-26T13:16:18.767Z,97377.19
2022-12-26T13:18:20.078Z,97377.97
2022-12-26T13:20:21.383Z,97388.94
2022-12-26T13:22:22.724Z,97376.94
2022-12-26T13:24:24.039Z,97378.59
2022-12-26T13:26:27.037Z,97381.09
2022-12-26T13:28:28.449Z,97383.66
2022-12-26T13:30:29.783Z,97381.09
2022-12-26T13:32:31.086Z,97385.38
2022-12-26T13:34:32.540Z,97391.44
2022-12-26T13:36:33.875Z,97386.53
2022-12-26T13:38:35.211Z,97396.94
2022-12-26T13:40:36.545Z,97397.09
2022-12-26T13:42:59.559Z,97390.47
2022-12-26T13:45:00.842Z,97394.81
2022-12-26T13:47:02.179Z,97393.94
2022-12-26T13:49:06.276Z,97382.88
2022-12-26T13:51:07.699Z,97382.81
2022-12-26T13:53:09.041Z,97391.22
2022-12-26T13:55:10.376Z,97399.63
2022-12-26T13:57:11.734Z,97420.84
2022-12-26T13:59:13.079Z,97438.63
2022-12-26T14:01:14.492Z,97450.47
2022-12-26T14:03:19.037Z,97464.84
2022-12-26T14:05:21.305Z,97478.41
2022-12-26T14:07:22.607Z,97472.41
2022-12-26T14:09:23.953Z,97470.66
2022-12-26T14:11:25.280Z,97480.00
2022-12-26T14:13:27.755Z,97482.53
2022-12-26T14:15:29.681Z,97475.75
2022-12-26T14:17:30.982Z,97485.09
2022-12-26T14:19:32.267Z,97476.53
2022-12-26T14:21:33.822Z,97480.84
2022-12-26T14:23:35.286Z,97488.50
2022-12-26T14:25:36.573Z,97482.53
2022-12-26T14:27:37.956Z,97486.75
2022-12-26T14:29:39.251Z,97477.38
2022-12-26T14:31:40.566Z,97471.38
2022-12-26T14:33:41.877Z,97469.72
2022-12-26T14:35:43.221Z,97473.97
2022-12-26T14:37:44.579Z,97482.47
2022-12-26T14:39:45.884Z,97473.06
2022-12-26T14:42:06.048Z,97477.38
2022-12-26T14:44:07.439Z,97467.16
2022-12-26T14:46:08.748Z,97477.31
2022-12-26T14:48:15.818Z,97470.53
2022-12-26T14:50:17.205Z,97473.91
2022-12-26T14:52:18.603Z,97478.25
2022-12-26T14:54:22.183Z,97473.97
2022-12-26T14:56:24.888Z,97468.88
2022-12-26T14:58:26.301Z,97474.81
2022-12-26T15:00:27.640Z,97471.44
2022-12-26T15:02:29.105Z,97477.41
2022-12-26T15:04:30.565Z,97469.75
2022-12-26T15:06:31.946Z,97466.38
2022-12-26T15:08:33.258Z,97468.88
2022-12-26T15:10:34.554Z,97483.41
2022-12-26T15:12:35.934Z,97469.88
2022-12-26T15:14:37.242Z,97470.69
2022-12-26T15:16:38.565Z,97463.03
2022-12-26T15:18:43.150Z,97471.56
2022-12-26T15:20:44.763Z,97465.63
2022-12-26T15:22:46.115Z,97469.81
2022-12-26T15:27:08.789Z,97465.63
2022-12-26T15:29:10.183Z,97471.56
2022-12-26T15:31:11.611Z,97467.41
2022-12-26T15:33:12.972Z,97469.91
2022-12-26T15:35:14.271Z,97463.97
2022-12-26T15:37:21.705Z,97475.91
2022-12-26T15:39:23.126Z,97481.00
2022-12-26T15:41:24.501Z,97475.06
2022-12-26T15:43:25.850Z,97476.75
2022-12-26T15:45:28.621Z,97480.09
2022-12-26T15:47:30.144Z,97480.94
2022-12-26T15:49:31.868Z,97482.66
2022-12-26T15:51:33.154Z,97485.19
2022-12-26T15:53:34.580Z,97499.66
2022-12-26T15:55:36.004Z,97500.53
2022-12-26T15:57:37.323Z,97500.50
2022-12-26T15:59:38.805Z,97505.63
2022-12-26T16:01:40.253Z,97509.78
2022-12-26T16:03:41.764Z,97498.81
2022-12-26T16:05:43.323Z,97498.78
2022-12-26T16:07:44.738Z,97498.78
2022-12-26T16:09:49.848Z,97497.88
2022-12-26T16:11:51.231Z,97501.34
2022-12-26T16:13:52.565Z,97500.50
2022-12-26T16:15:53.922Z,97499.56
2022-12-26T16:17:55.223Z,97487.69
2022-12-26T16:19:56.610Z,97488.53
2022-12-26T16:22:16.706Z,97481.63
2022-12-26T16:24:18.021Z,97488.50
2022-12-26T16:26:19.531Z,97487.59
2022-12-26T16:28:20.990Z,97492.72
2022-12-26T16:30:22.368Z,97498.69
2022-12-26T16:32:23.810Z,97495.28
2022-12-26T16:34:25.162Z,97495.28
2022-12-26T16:36:26.484Z,97499.47
2022-12-26T16:38:27.773Z,97489.22
2022-12-26T16:40:29.085Z,97488.38
2022-12-26T16:42:30.437Z,97496.06
2022-12-26T16:44:31.819Z,97490.94
2022-12-26T16:46:33.154Z,97500.25
2022-12-26T16:48:34.478Z,97502.84
2022-12-26T16:50:35.810Z,97513.84
2022-12-26T16:52:42.077Z,97512.22
2022-12-26T16:54:47.414Z,97513.91
2022-12-26T16:56:48.749Z,97514.75
2022-12-26T16:58:50.061Z,97507.13
2022-12-26T17:00:51.603Z,97516.50
2022-12-26T17:02:53.054Z,97516.56
2022-12-26T17:04:58.436Z,97515.69
2022-12-26T17:07:00.060Z,97514.00
2022-12-26T17:09:10.143Z,97519.09
2022-12-26T17:11:11.519Z,97520.78
2022-12-26T17:13:12.818Z,97514.84
2022-12-26T17:15:14.143Z,97515.75
2022-12-26T17:17:15.433Z,97514.06
2022-12-26T17:19:16.727Z,97515.78
2022-12-26T17:21:20.710Z,97516.66
2022-12-26T17:23:22.062Z,97517.47
2022-12-26T17:25:26.368Z,97519.16
2022-12-26T17:27:28.263Z,97519.16
2022-12-26T17:29:29.607Z,97511.56
2022-12-26T17:31:30.978Z,97507.25
2022-12-26T17:33:32.332Z,97510.72
2022-12-26T17:36:13.504Z,97519.16
2022-12-26T17:37:54.885Z,97511.50
2022-12-26T17:40:00.906Z,97514.16
2022-12-26T17:42:04.252Z,97517.47
2022-12-26T17:44:05.566Z,97514.94
2022-12-26T17:46:06.928Z,97510.72
2022-12-26T17:48:08.275Z,97514.16
2022-12-26T17:50:09.607Z,97511.56
2022-12-26T17:52:10.938Z,97510.72
2022-12-26T17:54:12.220Z,97497.88
2022-12-26T17:56:13.554Z,97501.34
2022-12-26T17:58:14.931Z,97511.56
2022-12-26T18:00:16.263Z,97503.84
2022-12-26T18:02:17.699Z,97497.88
2022-12-26T18:04:19.316Z,97504.69
2022-12-26T18:06:21.885Z,97504.69
2022-12-26T18:08:23.295Z,97508.91
2022-12-26T18:10:24.630Z,97528.50
2022-12-26T18:12:28.651Z,97510.63
2022-12-26T18:14:29.952Z,97514.03
2022-12-26T18:16:31.356Z,97514.84
2022-12-26T18:18:32.743Z,97517.38
2022-12-26T18:20:34.082Z,97515.75
2022-12-26T18:22:35.488Z,97505.53
2022-12-26T18:24:36.836Z,97515.75
2022-12-26T18:26:38.159Z,97510.66
2022-12-26T18:28:39.514Z,97508.16
2022-12-26T18:30:40.920Z,97505.75
2022-12-26T18:32:42.351Z,97489.88
2022-12-26T18:34:43.642Z,97491.72
2022-12-26T18:36:48.011Z,97494.44
2022-12-26T18:38:49.308Z,97506.50
2022-12-26T18:40:50.696Z,97491.28
2022-12-26T18:42:52.022Z,97504.94
2022-12-26T18:44:53.354Z,97490.34
2022-12-26T18:46:54.677Z,97498.72
2022-12-26T18:48:57.444Z,97491.06
2022-12-26T18:50:59.048Z,97496.06
2022-12-26T18:53:00.391Z,97485.78
2022-12-26T18:55:01.735Z,97488.25
2022-12-26T18:57:03.030Z,97485.59
2022-12-26T18:59:04.492Z,97485.53
2022-12-26T19:01:06.235Z,97485.44
2022-12-26T19:03:07.663Z,97493.09
2022-12-26T19:05:08.954Z,97493.91
2022-12-26T19:07:10.252Z,97499.75
2022-12-26T19:09:11.562Z,97497.16
2022-12-26T19:11:12.890Z,97495.41
2022-12-26T19:13:14.238Z,97487.75
2022-12-26T19:15:15.542Z,97493.63
2022-12-26T19:17:16.888Z,97490.19
2022-12-26T19:19:20.953Z,97484.41
2022-12-26T19:21:23.254Z,97481.13
2022-12-26T19:23:27.674Z,97476.53
2022-12-26T19:25:29.013Z,97479.78
2022-12-26T19:27:30.325Z,97474.41
2022-12-26T19:29:32.870Z,97471.00
2022-12-26T19:31:34.213Z,97477.75
2022-12-26T19:33:35.582Z,97469.16
2022-12-26T19:35:36.926Z,97466.06
2022-12-26T19:37:44.031Z,97458.63
2022-12-26T19:39:45.335Z,97441.19
2022-12-26T19:41:49.350Z,97441.91
2022-12-26T19:43:50.645Z,97439.47
2022-12-26T19:45:51.953Z,97434.19
2022-12-26T19:47:53.499Z,97431.56
2022-12-26T19:49:54.794Z,97439.63
2022-12-26T19:51:56.083Z,97437.63
2022-12-26T19:54:00.730Z,97437.88
2022-12-26T19:56:02.023Z,97438.34
2022-12-26T19:58:06.039Z,97442.91
2022-12-26T20:00:07.634Z,97444.75
2022-12-26T20:02:09.237Z,97449.94
2022-12-26T20:04:13.743Z,97449.22
2022-12-26T20:06:15.082Z,97462.81
2022-12-26T20:08:16.403Z,97461.94
2022-12-26T20:10:20.633Z,97466.88
2022-12-26T20:12:21.960Z,97474.19
2022-12-26T20:14:23.300Z,97471.38
2022-12-26T20:17:03.216Z,97462.59
2022-12-26T20:18:45.907Z,97456.56
2022-12-26T20:20:49.852Z,97456.81
2022-12-26T20:22:53.128Z,97466.34
2022-12-26T20:24:54.762Z,97510.44
2022-12-26T20:26:56.063Z,97509.34
2022-12-26T20:28:57.356Z,97523.06
2022-12-26T20:30:58.716Z,97519.78
2022-12-26T20:33:00.115Z,97519.13
2022-12-26T20:35:01.423Z,97542.06
2022-12-26T20:37:03.119Z,97511.31
2022-12-26T20:39:04.432Z,97510.44
2022-12-26T20:41:05.773Z,97519.69
2022-12-26T20:43:07.078Z,97521.22
2022-12-26T20:45:08.411Z,97533.88
2022-12-26T20:47:09.801Z,97517.44
2022-12-26T20:49:11.143Z,97526.72
2022-12-26T20:51:12.430Z,97538.22
2022-12-26T20:53:13.801Z,97535.13
2022-12-26T20:55:16.452Z,97548.59
2022-12-26T20:57:17.793Z,97549.03
2022-12-26T20:59:19.186Z,97559.56
2022-12-26T21:01:23.641Z,97561.13
2022-12-26T21:03:25.112Z,97600.28
2022-12-26T21:05:26.479Z,97639.25
2022-12-26T21:07:27.880Z,97639.63
2022-12-26T21:09:29.193Z,97642.88
2022-12-26T21:11:30.532Z,97645.00
2022-12-26T21:13:31.867Z,97638.16
2022-12-26T21:15:33.165Z,97645.44
2022-12-26T21:17:34.516Z,97640.16
2022-12-26T21:19:35.802Z,97629.22
2022-12-26T21:21:40.555Z,97632.31
2022-12-26T21:23:41.911Z,97624.44
2022-12-26T21:25:43.218Z,97616.53
2022-12-26T21:27:46.457Z,97605.56
2022-12-26T21:29:50.715Z,97607.19
2022-12-26T21:31:52.028Z,97591.88
2022-12-26T21:33:53.372Z,97566.31
2022-12-26T21:35:54.920Z,97550.75
2022-12-26T21:37:56.278Z,97533.03
2022-12-26T21:39:57.574Z,97551.34
2022-12-26T21:41:58.887Z,97547.59
2022-12-26T21:44:00.216Z,97549.31
2022-12-26T21:46:01.632Z,97558.03
2022-12-26T21:48:03.002Z,97573.28
2022-12-26T21:50:04.350Z,97439.00
2022-12-26T21:52:05.660Z,97589.69
2022-12-26T21:54:25.892Z,97596.53
2022-12-26T21:56:27.237Z,97602.59
2022-12-26T21:58:29.294Z,97603.66
2022-12-26T22:00:34.995Z,97608.06
2022-12-26T22:02:55.004Z,97621.19
2022-12-26T22:04:56.484Z,97634.28
2022-12-26T22:06:57.787Z,97624.63
2022-12-26T22:08:59.153Z,97618.56
2022-12-26T22:11:19.274Z,97623.56
2022-12-26T22:13:20.564Z,97620.72
2022-12-26T22:15:43.730Z,97642.13
2022-12-26T22:17:45.071Z,97648.25
2022-12-26T22:19:46.361Z,97645.34
2022-12-26T22:21:47.671Z,97644.25
2022-12-26T22:23:52.033Z,97642.09
2022-12-26T22:25:54.022Z,97631.66
2022-12-26T22:27:55.316Z,97643.41
2022-12-26T22:29:56.618Z,97653.22
2022-12-26T22:31:58.918Z,97665.72
2022-12-26T22:34:00.235Z,97680.44
2022-12-26T22:36:01.527Z,97691.22
2022-12-26T22:38:02.831Z,97686.22
2022-12-26T22:40:04.180Z,97681.88
2022-12-26T22:42:05.510Z,97687.63
2022-12-26T22:44:06.865Z,97687.28
2022-12-26T22:46:08.226Z,97689.66
2022-12-26T22:48:09.556Z,97685.16
2022-12-26T22:50:10.895Z,97690.56
2022-12-26T22:52:15.907Z,97698.25
2022-12-26T22:54:17.454Z,97705.44
2022-12-26T22:56:18.742Z,97702.56
2022-12-26T22:58:20.031Z,97724.34
2022-12-26T23:00:21.346Z,97731.25
2022-12-26T23:02:22.904Z,97738.31
2022-12-26T23:04:24.320Z,97740.19
2022-12-26T23:06:25.738Z,97747.72
2022-12-26T23:08:27.073Z,97748.72
2022-12-26T23:10:28.433Z,97752.00
2022-12-26T23:12:44.965Z,97753.66
2022-12-26T23:14:46.295Z,97757.94
2022-12-26T23:16:50.645Z,97765.75
2022-12-26T23:19:10.479Z,97754.03
2022-12-26T23:21:30.505Z,97776.13
2022-12-26T23:23:31.866Z,97768.44
2022-12-26T23:25:33.161Z,97768.25
2022-12-26T23:27:53.190Z,97776.53
2022-12-26T23:30:13.402Z,97790.69
2022-12-26T23:32:14.702Z,97804.59
2022-12-26T23:34:18.830Z,97817.38
2022-12-26T23:36:20.155Z,97813.66
2022-12-26T23:38:21.451Z,97817.81
2022-12-26T23:40:22.846Z,97819.75
2022-12-26T23:42:24.149Z,97820.66
2022-12-26T23:44:25.434Z,97826.75
2022-12-26T23:46:26.837Z,97833.16
2022-12-26T23:48:28.147Z,97823.16
2022-12-26T23:50:29.511Z,97830.97
2022-12-26T23:52:30.854Z,97839.41
2022-12-26T23:54:32.189Z,97843.53
2022-12-26T23:56:33.541Z,97854.94
2022-12-26T23:58:34.908Z,97855.50
